createdAt,value
2019-02-05T00:00:28.397Z,85.49
2019-02-05T00:01:36.458Z,85.53
2019-02-05T00:02:44.479Z,85.35
2019-02-05T00:03:52.558Z,85.63
2019-02-05T00:05:00.596Z,86.33
2019-02-05T00:06:08.668Z,85.72
2019-02-05T00:07:16.712Z,86.52
2019-02-05T00:08:24.778Z,87.66
2019-02-05T00:09:32.800Z,86.33
2019-02-05T00:10:40.942Z,85.77
2019-02-05T00:11:48.908Z,85.39
2019-02-05T00:12:56.962Z,85.20
2019-02-05T00:14:05.013Z,86.05
2019-02-05T00:15:13.072Z,85.96
2019-02-05T00:16:21.133Z,85.49
2019-02-05T00:17:29.176Z,86.62
2019-02-05T00:18:37.218Z,86.62
2019-02-05T00:19:45.273Z,85.68
2019-02-05T00:20:53.333Z,85.77
2019-02-05T00:22:01.426Z,85.39
2019-02-05T00:23:09.435Z,84.54
2019-02-05T00:24:17.467Z,85.01
2019-02-05T00:25:25.527Z,85.01
2019-02-05T00:26:33.590Z,85.01
2019-02-05T00:27:41.647Z,84.07
2019-02-05T00:28:49.681Z,83.31
2019-02-05T00:29:57.738Z,84.92
2019-02-05T00:31:05.788Z,83.78
2019-02-05T00:32:13.835Z,83.31
2019-02-05T00:33:21.903Z,84.82
2019-02-05T00:34:29.946Z,85.11
2019-02-05T00:35:38.003Z,85.39
2019-02-05T00:36:46.056Z,85.30
2019-02-05T00:37:54.080Z,84.73
2019-02-05T00:39:02.171Z,85.77
2019-02-05T00:40:10.239Z,86.80
2019-02-05T00:41:18.271Z,87.37
2019-02-05T00:42:26.315Z,86.52
2019-02-05T00:43:34.348Z,85.77
2019-02-05T00:44:42.422Z,85.77
2019-02-05T00:45:50.476Z,85.30
2019-02-05T00:46:58.541Z,84.73
2019-02-05T00:48:06.565Z,84.92
2019-02-05T00:49:14.626Z,84.16
2019-02-05T00:50:22.688Z,85.30
2019-02-05T00:51:30.732Z,89.64
2019-02-05T00:52:38.769Z,90.02
2019-02-05T00:53:46.839Z,90.30
2019-02-05T00:54:54.886Z,90.11
2019-02-05T00:56:02.951Z,91.53
2019-02-05T00:57:10.990Z,92.19
2019-02-05T00:58:19.043Z,96.35
2019-02-05T00:59:27.097Z,98.52
2019-02-05T01:00:35.147Z,99.27
2019-02-05T01:01:43.193Z,96.25
2019-02-05T01:02:51.247Z,97.01
2019-02-05T01:03:59.310Z,94.93
2019-02-05T01:05:07.365Z,97.29
2019-02-05T01:06:15.409Z,97.39
2019-02-05T01:07:23.459Z,95.97
2019-02-05T01:08:31.527Z,95.59
2019-02-05T01:09:39.569Z,94.18
2019-02-05T01:10:47.625Z,94.27
2019-02-05T01:11:55.705Z,93.89
2019-02-05T01:13:03.700Z,93.99
2019-02-05T01:14:11.817Z,93.61
2019-02-05T01:15:19.824Z,91.34
2019-02-05T01:16:27.871Z,91.34
2019-02-05T01:17:35.946Z,92.29
2019-02-05T01:18:43.953Z,91.72
2019-02-05T01:19:52.022Z,90.30
2019-02-05T01:21:00.080Z,89.45
2019-02-05T01:22:08.121Z,89.45
2019-02-05T01:23:16.167Z,89.17
2019-02-05T01:24:24.210Z,88.60
2019-02-05T01:25:32.277Z,89.36
2019-02-05T01:26:40.337Z,88.60
2019-02-05T01:27:48.410Z,87.94
2019-02-05T01:28:56.439Z,88.60
2019-02-05T01:30:04.462Z,89.64
2019-02-05T01:31:12.547Z,89.07
2019-02-05T01:32:20.611Z,88.32
2019-02-05T01:33:28.668Z,87.94
2019-02-05T01:34:36.684Z,87.18
2019-02-05T01:35:44.734Z,86.24
2019-02-05T01:36:52.796Z,85.77
2019-02-05T01:38:00.851Z,85.86
2019-02-05T01:39:08.909Z,85.86
2019-02-05T01:40:16.958Z,85.49
2019-02-05T01:41:25.006Z,85.11
2019-02-05T01:42:33.051Z,86.52
2019-02-05T01:43:41.132Z,86.71
2019-02-05T01:44:49.196Z,87.18
2019-02-05T01:45:57.227Z,88.23
2019-02-05T01:47:05.268Z,88.04
2019-02-05T01:48:13.367Z,87.37
2019-02-05T01:49:21.373Z,86.71
2019-02-05T01:50:29.439Z,86.52
2019-02-05T01:51:37.476Z,86.15
2019-02-05T01:52:45.549Z,90.02
2019-02-05T01:53:53.572Z,88.13
2019-02-05T01:55:01.633Z,87.28
2019-02-05T01:56:09.684Z,87.28
2019-02-05T01:57:17.734Z,88.89
2019-02-05T01:58:25.802Z,89.45
2019-02-05T01:59:33.831Z,91.25
2019-02-05T02:00:41.891Z,91.25
2019-02-05T02:01:49.984Z,91.25
2019-02-05T02:02:58.001Z,91.72
2019-02-05T02:04:06.054Z,91.25
2019-02-05T02:05:14.075Z,92.10
2019-02-05T02:06:22.151Z,93.13
2019-02-05T02:07:30.205Z,94.37
2019-02-05T02:08:38.253Z,94.37
2019-02-05T02:09:46.325Z,94.65
2019-02-05T02:10:54.349Z,94.27
2019-02-05T02:12:02.414Z,93.89
2019-02-05T02:13:10.473Z,94.37
2019-02-05T02:14:18.524Z,94.18
2019-02-05T02:15:26.569Z,93.42
2019-02-05T02:16:34.617Z,92.29
2019-02-05T02:17:42.664Z,91.72
2019-02-05T02:18:50.728Z,91.34
2019-02-05T02:19:58.779Z,93.80
2019-02-05T02:21:06.842Z,95.78
2019-02-05T02:22:14.871Z,96.35
2019-02-05T02:23:22.929Z,97.01
2019-02-05T02:24:30.973Z,96.54
2019-02-05T02:25:39.090Z,96.44
2019-02-05T02:26:51.924Z,98.99
2019-02-05T02:27:55.154Z,98.14
2019-02-05T02:29:03.199Z,99.18
2019-02-05T02:30:11.242Z,99.99
2019-02-05T02:31:19.299Z,99.41
2019-02-05T02:32:27.350Z,99.99
2019-02-05T02:33:35.384Z,99.99
2019-02-05T02:34:43.452Z,99.99
2019-02-05T02:35:51.617Z,99.99
2019-02-05T02:36:59.555Z,99.99
2019-02-05T02:38:07.631Z,99.99
2019-02-05T02:39:15.661Z,99.99
2019-02-05T02:40:23.699Z,99.99
2019-02-05T02:41:31.754Z,99.99
2019-02-05T02:42:39.818Z,99.99
2019-02-05T02:43:47.882Z,99.99
2019-02-05T02:44:55.917Z,99.99
2019-02-05T02:46:03.943Z,99.99
2019-02-05T02:47:12.011Z,99.99
2019-02-05T02:48:20.068Z,99.99
2019-02-05T02:49:28.128Z,99.99
2019-02-05T02:50:36.171Z,99.99
2019-02-05T02:51:44.216Z,99.99
2019-02-05T02:52:52.276Z,99.99
2019-02-05T02:54:00.318Z,99.99
2019-02-05T02:55:08.378Z,99.99
2019-02-05T02:56:16.431Z,99.99
2019-02-05T02:57:24.454Z,99.99
2019-02-05T02:58:32.534Z,99.99
2019-02-05T02:59:40.577Z,99.99
2019-02-05T03:00:48.619Z,99.99
2019-02-05T03:01:56.672Z,99.99
2019-02-05T03:03:04.728Z,99.99
2019-02-05T03:04:12.778Z,99.99
2019-02-05T03:05:20.823Z,99.99
2019-02-05T03:06:28.893Z,99.99
2019-02-05T03:07:36.925Z,99.99
2019-02-05T03:08:44.983Z,99.99
2019-02-05T03:09:53.037Z,99.99
2019-02-05T03:11:01.089Z,99.99
2019-02-05T03:12:09.146Z,99.99
2019-02-05T03:13:17.204Z,99.99
2019-02-05T03:14:25.244Z,99.99
2019-02-05T03:15:33.277Z,99.08
2019-02-05T03:16:41.362Z,97.38
2019-02-05T03:17:49.406Z,99.84
2019-02-05T03:18:57.447Z,99.46
2019-02-05T03:20:05.491Z,97.76
2019-02-05T03:21:13.543Z,91.16
2019-02-05T03:22:21.598Z,93.04
2019-02-05T03:23:29.658Z,94.55
2019-02-05T03:24:37.698Z,97.29
2019-02-05T03:25:45.750Z,97.00
2019-02-05T03:26:53.778Z,95.31
2019-02-05T03:28:01.887Z,95.12
2019-02-05T03:29:09.883Z,95.87
2019-02-05T03:30:17.963Z,94.93
2019-02-05T03:31:25.986Z,95.31
2019-02-05T03:32:34.037Z,93.99
2019-02-05T03:33:42.087Z,83.56
2019-02-05T03:34:50.151Z,82.43
2019-02-05T03:35:58.215Z,83.42
2019-02-05T03:37:06.256Z,85.02
2019-02-05T03:38:14.294Z,82.76
2019-02-05T03:39:22.380Z,79.64
2019-02-05T03:40:30.516Z,79.55
2019-02-05T03:41:38.446Z,80.58
2019-02-05T03:42:46.506Z,77.28
2019-02-05T03:43:54.552Z,72.56
2019-02-05T03:45:02.602Z,72.75
2019-02-05T03:46:10.657Z,69.73
2019-02-05T03:47:18.700Z,67.66
2019-02-05T03:48:26.751Z,65.67
2019-02-05T03:49:34.794Z,63.70
2019-02-05T03:50:42.866Z,63.79
2019-02-05T03:51:50.884Z,64.92
2019-02-05T03:52:58.952Z,65.01
2019-02-05T03:54:07.002Z,65.01
2019-02-05T03:55:15.052Z,64.92
2019-02-05T03:56:23.110Z,64.92
2019-02-05T03:57:32.014Z,65.30
2019-02-05T03:58:39.217Z,65.67
2019-02-05T03:59:47.268Z,66.15
2019-02-05T04:00:55.306Z,66.90
2019-02-05T04:02:03.365Z,68.32
2019-02-05T04:03:11.420Z,69.17
2019-02-05T04:04:19.480Z,69.83
2019-02-05T04:05:27.503Z,70.11
2019-02-05T04:06:35.574Z,69.92
2019-02-05T04:07:43.611Z,72.19
2019-02-05T04:08:51.664Z,73.32
2019-02-05T04:09:59.712Z,74.07
2019-02-05T04:11:07.757Z,77.47
2019-02-05T04:12:15.805Z,79.08
2019-02-05T04:13:23.852Z,80.30
2019-02-05T04:14:31.923Z,82.76
2019-02-05T04:15:39.966Z,82.66
2019-02-05T04:16:48.013Z,84.17
2019-02-05T04:17:56.062Z,85.21
2019-02-05T04:19:04.096Z,85.30
2019-02-05T04:20:12.166Z,86.25
2019-02-05T04:21:20.226Z,85.30
2019-02-05T04:22:28.387Z,83.42
2019-02-05T04:23:36.312Z,81.43
2019-02-05T04:24:44.362Z,79.17
2019-02-05T04:25:52.428Z,77.66
2019-02-05T04:27:00.474Z,77.19
2019-02-05T04:28:08.522Z,75.68
2019-02-05T04:29:16.574Z,75.49
2019-02-05T04:30:24.645Z,75.78
2019-02-05T04:31:32.678Z,75.78
2019-02-05T04:32:40.725Z,74.55
2019-02-05T04:33:48.769Z,73.79
2019-02-05T04:34:56.825Z,72.75
2019-02-05T04:36:04.867Z,72.19
2019-02-05T04:37:12.932Z,71.53
2019-02-05T04:38:20.978Z,71.06
2019-02-05T04:39:29.039Z,70.30
2019-02-05T04:40:37.102Z,70.24
2019-02-05T04:41:45.135Z,70.24
2019-02-05T04:42:53.275Z,71.37
2019-02-05T04:44:01.272Z,70.05
2019-02-05T04:45:09.279Z,70.34
2019-02-05T04:46:17.337Z,71.47
2019-02-05T04:47:25.464Z,71.19
2019-02-05T04:48:33.449Z,71.56
2019-02-05T04:49:41.470Z,74.21
2019-02-05T04:50:49.542Z,74.49
2019-02-05T04:51:57.578Z,75.15
2019-02-05T04:53:05.635Z,76.38
2019-02-05T04:54:13.668Z,77.32
2019-02-05T04:55:21.753Z,78.36
2019-02-05T04:56:29.799Z,76.66
2019-02-05T04:57:37.845Z,76.38
2019-02-05T04:58:45.883Z,75.62
2019-02-05T04:59:53.931Z,75.24
2019-02-05T05:01:02.001Z,75.34
2019-02-05T05:02:10.039Z,75.62
2019-02-05T05:03:18.112Z,76.76
2019-02-05T05:04:26.164Z,77.42
2019-02-05T05:05:34.171Z,77.70
2019-02-05T05:06:42.255Z,77.32
2019-02-05T05:07:50.296Z,77.32
2019-02-05T05:08:58.361Z,77.51
2019-02-05T05:10:06.405Z,77.32
2019-02-05T05:11:14.451Z,76.57
2019-02-05T05:12:22.518Z,78.55
2019-02-05T05:13:30.573Z,78.74
2019-02-05T05:14:38.625Z,79.97
2019-02-05T05:15:46.665Z,79.59
2019-02-05T05:16:54.691Z,79.21
2019-02-05T05:18:02.762Z,78.36
2019-02-05T05:19:10.827Z,77.61
2019-02-05T05:20:18.896Z,77.51
2019-02-05T05:21:26.923Z,77.32
2019-02-05T05:22:34.967Z,78.64
2019-02-05T05:23:45.083Z,77.89
2019-02-05T05:24:51.067Z,77.98
2019-02-05T05:25:59.134Z,77.80
2019-02-05T05:27:07.169Z,77.51
2019-02-05T05:28:15.229Z,78.36
2019-02-05T05:29:23.282Z,77.42
2019-02-05T05:30:31.332Z,77.89
2019-02-05T05:31:39.425Z,77.23
2019-02-05T05:32:47.451Z,77.23
2019-02-05T05:33:55.475Z,77.32
2019-02-05T05:35:03.553Z,77.98
2019-02-05T05:36:11.586Z,79.11
2019-02-05T05:37:19.636Z,79.68
2019-02-05T05:38:27.676Z,79.49
2019-02-05T05:39:35.754Z,79.97
2019-02-05T05:40:43.790Z,79.78
2019-02-05T05:41:51.843Z,79.68
2019-02-05T05:42:59.878Z,80.34
2019-02-05T05:44:09.527Z,80.15
2019-02-05T05:45:15.982Z,80.91
2019-02-05T05:46:24.047Z,80.25
2019-02-05T05:47:32.106Z,79.59
2019-02-05T05:48:40.155Z,80.34
2019-02-05T05:49:48.202Z,80.72
2019-02-05T05:50:56.277Z,81.48
2019-02-05T05:52:04.276Z,82.70
2019-02-05T05:53:12.369Z,81.95
2019-02-05T05:54:20.421Z,81.20
2019-02-05T05:55:28.457Z,81.38
2019-02-05T05:56:36.537Z,82.61
2019-02-05T05:57:44.563Z,82.51
2019-02-05T05:58:52.655Z,82.61
2019-02-05T06:00:00.676Z,83.27
2019-02-05T06:01:08.740Z,82.80
2019-02-05T06:02:16.763Z,83.17
2019-02-05T06:03:24.838Z,82.61
2019-02-05T06:04:33.018Z,82.61
2019-02-05T06:05:40.975Z,82.04
2019-02-05T06:06:48.972Z,83.36
2019-02-05T06:07:57.032Z,83.27
2019-02-05T06:09:05.102Z,83.65
2019-02-05T06:10:13.772Z,83.36
2019-02-05T06:11:21.174Z,84.31
2019-02-05T06:12:29.251Z,84.41
2019-02-05T06:13:37.332Z,84.12
2019-02-05T06:14:45.348Z,84.78
2019-02-05T06:15:53.431Z,84.88
2019-02-05T06:17:01.556Z,83.84
2019-02-05T06:18:09.498Z,84.88
2019-02-05T06:19:17.564Z,84.31
2019-02-05T06:20:25.612Z,84.97
2019-02-05T06:21:33.656Z,84.59
2019-02-05T06:22:41.709Z,83.74
2019-02-05T06:23:49.753Z,84.73
2019-02-05T06:24:57.808Z,85.06
2019-02-05T06:26:05.931Z,85.25
2019-02-05T06:27:13.890Z,85.53
2019-02-05T06:28:33.975Z,85.63
2019-02-05T06:29:30.017Z,86.38
2019-02-05T06:30:39.124Z,85.44
2019-02-05T06:31:46.221Z,84.78
2019-02-05T06:32:54.142Z,85.63
2019-02-05T06:34:02.230Z,85.63
2019-02-05T06:35:10.274Z,84.97
2019-02-05T06:36:18.323Z,84.78
2019-02-05T06:37:26.373Z,84.92
2019-02-05T06:38:34.419Z,84.78
2019-02-05T06:39:42.483Z,84.59
2019-02-05T06:40:50.540Z,83.74
2019-02-05T06:41:58.614Z,83.74
2019-02-05T06:43:06.641Z,84.12
2019-02-05T06:44:14.661Z,83.36
2019-02-05T06:45:22.748Z,83.84
2019-02-05T06:46:30.790Z,84.03
2019-02-05T06:47:38.842Z,84.88
2019-02-05T06:48:47.192Z,85.77
2019-02-05T06:49:55.037Z,86.99
2019-02-05T06:51:02.987Z,86.29
2019-02-05T06:52:11.047Z,85.44
2019-02-05T06:53:19.075Z,85.30
2019-02-05T06:54:27.142Z,84.88
2019-02-05T06:55:35.198Z,85.20
2019-02-05T06:56:43.264Z,84.78
2019-02-05T06:57:51.298Z,84.78
2019-02-05T06:58:59.361Z,85.49
2019-02-05T07:00:07.435Z,85.91
2019-02-05T07:01:15.475Z,87.80
2019-02-05T07:02:23.540Z,87.14
2019-02-05T07:03:32.150Z,86.76
2019-02-05T07:04:39.634Z,88.09
2019-02-05T07:05:47.687Z,86.48
2019-02-05T07:06:55.733Z,86.95
2019-02-05T07:08:03.808Z,86.95
2019-02-05T07:09:11.842Z,85.63
2019-02-05T07:10:19.875Z,84.88
2019-02-05T07:11:27.957Z,84.59
2019-02-05T07:12:35.985Z,84.78
2019-02-05T07:13:44.045Z,84.50
2019-02-05T07:14:52.093Z,84.35
2019-02-05T07:16:00.161Z,84.03
2019-02-05T07:17:08.198Z,84.82
2019-02-05T07:18:16.268Z,86.38
2019-02-05T07:19:24.274Z,85.25
2019-02-05T07:20:32.382Z,86.38
2019-02-05T07:21:40.976Z,85.82
2019-02-05T07:22:48.465Z,84.50
2019-02-05T07:23:56.502Z,84.59
2019-02-05T07:25:04.544Z,86.10
2019-02-05T07:26:12.608Z,85.53
2019-02-05T07:27:20.653Z,84.97
2019-02-05T07:28:28.710Z,84.22
2019-02-05T07:29:36.767Z,83.84
2019-02-05T07:30:44.811Z,86.48
2019-02-05T07:31:52.874Z,85.63
2019-02-05T07:33:00.919Z,85.63
2019-02-05T07:34:09.064Z,86.10
2019-02-05T07:35:17.049Z,86.38
2019-02-05T07:36:25.074Z,85.91
2019-02-05T07:37:33.130Z,85.35
2019-02-05T07:38:41.176Z,85.35
2019-02-05T07:39:49.235Z,84.41
2019-02-05T07:40:57.279Z,85.44
2019-02-05T07:42:05.348Z,85.06
2019-02-05T07:43:13.385Z,83.27
2019-02-05T07:44:21.440Z,82.51
2019-02-05T07:45:29.479Z,83.27
2019-02-05T07:46:37.539Z,83.08
2019-02-05T07:47:45.600Z,84.50
2019-02-05T07:48:53.645Z,84.59
2019-02-05T07:50:01.703Z,83.46
2019-02-05T07:51:09.755Z,82.51
2019-02-05T07:52:17.801Z,82.42
2019-02-05T07:53:25.861Z,83.27
2019-02-05T07:54:33.894Z,83.27
2019-02-05T07:55:41.961Z,86.67
2019-02-05T07:56:50.037Z,84.69
2019-02-05T07:57:58.073Z,83.93
2019-02-05T07:59:10.013Z,85.35
2019-02-05T08:00:14.159Z,86.01
2019-02-05T08:01:22.280Z,86.29
2019-02-05T08:02:30.281Z,91.82
2019-02-05T08:03:38.320Z,88.09
2019-02-05T08:04:46.402Z,89.69
2019-02-05T08:05:54.404Z,89.50
2019-02-05T08:07:02.486Z,89.73
2019-02-05T08:08:10.531Z,95.50
2019-02-05T08:09:18.582Z,94.37
2019-02-05T08:10:26.651Z,93.89
2019-02-05T08:11:34.666Z,92.66
2019-02-05T08:12:42.740Z,93.23
2019-02-05T08:13:50.791Z,97.20
2019-02-05T08:14:58.844Z,98.33
2019-02-05T08:16:06.905Z,99.99
2019-02-05T08:17:14.981Z,99.46
2019-02-05T08:18:22.996Z,97.34
2019-02-05T08:19:31.063Z,95.45
2019-02-05T08:20:39.115Z,93.84
2019-02-05T08:21:47.165Z,90.73
2019-02-05T08:22:55.206Z,92.05
2019-02-05T08:24:03.273Z,95.40
2019-02-05T08:25:11.692Z,99.99
2019-02-05T08:26:19.438Z,97.72
2019-02-05T08:27:27.857Z,98.66
2019-02-05T08:28:40.747Z,96.68
2019-02-05T08:29:43.978Z,96.73
2019-02-05T08:30:52.156Z,99.99
2019-02-05T08:32:00.054Z,99.99
2019-02-05T08:33:07.699Z,99.99
2019-02-05T08:34:15.752Z,99.99
2019-02-05T08:35:23.882Z,99.99
2019-02-05T08:36:31.866Z,99.99
2019-02-05T08:37:39.930Z,99.99
2019-02-05T08:38:47.960Z,99.99
2019-02-05T08:39:56.048Z,99.99
2019-02-05T08:41:04.047Z,99.99
2019-02-05T08:42:12.118Z,99.99
2019-02-05T08:43:20.169Z,99.99
2019-02-05T08:44:28.239Z,99.99
2019-02-05T08:45:36.266Z,99.99
2019-02-05T08:46:44.401Z,99.99
2019-02-05T08:47:52.801Z,99.99
2019-02-05T08:49:00.430Z,99.99
2019-02-05T08:50:08.474Z,99.99
2019-02-05T08:51:16.540Z,99.99
2019-02-05T08:52:24.585Z,99.99
2019-02-05T08:53:32.991Z,99.99
2019-02-05T08:54:40.685Z,99.99
2019-02-05T08:55:48.749Z,99.99
2019-02-05T08:56:56.810Z,99.99
2019-02-05T08:58:05.004Z,99.99
2019-02-05T08:59:12.909Z,99.99
2019-02-05T09:00:20.983Z,99.99
2019-02-05T09:01:29.166Z,99.99
2019-02-05T09:02:37.075Z,99.99
2019-02-05T09:03:45.310Z,99.99
2019-02-05T09:04:53.163Z,99.99
2019-02-05T09:06:01.227Z,99.99
2019-02-05T09:07:09.597Z,99.99
2019-02-05T09:08:20.631Z,99.99
2019-02-05T09:09:25.403Z,99.99
2019-02-05T09:10:33.492Z,99.99
2019-02-05T09:11:42.105Z,99.99
2019-02-05T09:12:49.946Z,99.99
2019-02-05T09:13:57.608Z,99.99
2019-02-05T09:15:05.677Z,99.99
2019-02-05T09:16:13.696Z,99.99
2019-02-05T09:17:24.254Z,99.99
2019-02-05T09:18:29.804Z,99.99
2019-02-05T09:19:38.030Z,99.99
2019-02-05T09:20:45.918Z,99.99
2019-02-05T09:21:53.939Z,99.99
2019-02-05T09:23:02.029Z,99.99
2019-02-05T09:24:10.068Z,99.99
2019-02-05T09:25:18.117Z,99.99
2019-02-05T09:26:26.188Z,99.99
2019-02-05T09:27:34.198Z,99.99
2019-02-05T09:28:42.324Z,99.99
2019-02-05T09:29:50.367Z,99.99
2019-02-05T09:30:58.433Z,99.99
2019-02-05T09:32:06.446Z,99.99
2019-02-05T09:33:14.472Z,99.99
2019-02-05T09:34:22.546Z,99.99
2019-02-05T09:35:30.594Z,99.99
2019-02-05T09:36:38.646Z,99.99
2019-02-05T09:37:47.393Z,99.99
2019-02-05T09:38:55.278Z,99.99
2019-02-05T09:40:03.216Z,99.99
2019-02-05T09:41:10.954Z,99.99
2019-02-05T09:42:19.537Z,99.99
2019-02-05T09:43:27.027Z,99.99
2019-02-05T09:44:35.504Z,99.99
2019-02-05T09:45:43.739Z,99.99
2019-02-05T09:46:51.646Z,99.99
2019-02-05T09:47:59.202Z,99.99
2019-02-05T09:49:07.477Z,99.99
2019-02-05T09:50:15.828Z,99.99
2019-02-05T09:51:23.456Z,99.99
2019-02-05T09:52:31.510Z,99.99
2019-02-05T09:53:39.550Z,99.99
2019-02-05T10:29:23.563Z,99.99
2019-02-05T10:30:31.492Z,99.99
2019-02-05T10:31:39.375Z,99.99
2019-02-05T10:32:47.411Z,99.99
2019-02-05T10:33:55.574Z,99.99
2019-02-05T10:35:03.624Z,99.99
2019-02-05T10:36:11.575Z,99.99
2019-02-05T10:37:19.659Z,99.99
2019-02-05T10:38:27.844Z,99.99
2019-02-05T10:39:35.949Z,99.99
2019-02-05T10:40:43.869Z,99.99
2019-02-05T10:41:52.077Z,99.99
2019-02-05T10:42:59.935Z,99.99
2019-02-05T10:44:08.001Z,99.99
2019-02-05T10:45:16.056Z,99.99
2019-02-05T10:46:24.143Z,99.99
2019-02-05T10:47:32.341Z,99.99
2019-02-05T10:48:40.232Z,99.99
2019-02-05T10:49:48.279Z,99.99
2019-02-05T10:50:56.322Z,99.99
2019-02-05T10:52:04.399Z,99.99
2019-02-05T10:53:12.443Z,99.99
2019-02-05T10:54:20.495Z,99.99
2019-02-05T10:55:28.542Z,99.99
2019-02-05T10:56:36.615Z,99.99
2019-02-05T10:57:44.666Z,99.99
2019-02-05T10:58:52.774Z,99.99
2019-02-05T11:00:08.345Z,99.99
2019-02-05T11:01:08.831Z,99.99
2019-02-05T11:02:16.899Z,99.99
2019-02-05T11:03:24.953Z,99.99
2019-02-05T11:04:33.024Z,99.99
2019-02-05T11:05:41.072Z,99.99
2019-02-05T11:06:49.119Z,99.99
2019-02-05T11:07:57.171Z,99.99
2019-02-05T11:09:05.247Z,99.99
2019-02-05T11:10:13.283Z,99.99
2019-02-05T11:11:21.523Z,99.99
2019-02-05T11:12:29.397Z,99.99
2019-02-05T11:13:37.470Z,99.99
2019-02-05T11:14:45.513Z,99.99
2019-02-05T11:15:53.581Z,99.99
2019-02-05T11:17:01.599Z,99.99
2019-02-05T11:18:09.688Z,99.99
2019-02-05T11:19:17.862Z,99.99
2019-02-05T11:20:26.041Z,99.99
2019-02-05T11:21:33.957Z,99.99
2019-02-05T11:22:41.938Z,99.99
2019-02-05T11:23:50.030Z,99.99
2019-02-05T11:24:58.140Z,99.99
2019-02-05T11:26:06.682Z,99.99
2019-02-05T11:27:14.208Z,99.99
2019-02-05T11:28:22.290Z,99.99
2019-02-05T11:29:30.323Z,99.99
2019-02-05T11:30:38.395Z,99.99
2019-02-05T11:31:46.484Z,99.99
2019-02-05T11:32:54.503Z,99.99
2019-02-05T11:34:02.539Z,99.99
2019-02-05T11:35:10.609Z,99.99
2019-02-05T11:36:18.676Z,99.99
2019-02-05T11:37:26.750Z,99.99
2019-02-05T11:38:34.788Z,99.99
2019-02-05T11:39:42.839Z,99.99
2019-02-05T11:40:50.898Z,99.99
2019-02-05T11:41:59.004Z,99.99
2019-02-05T11:43:07.049Z,99.99
2019-02-05T11:44:15.099Z,99.99
2019-02-05T11:45:23.130Z,99.99
2019-02-05T11:46:31.338Z,99.99
2019-02-05T11:47:39.272Z,99.99
2019-02-05T11:48:47.328Z,99.99
2019-02-05T11:49:55.366Z,99.99
2019-02-05T11:51:03.637Z,99.99
2019-02-05T11:52:11.501Z,99.99
2019-02-05T11:53:19.550Z,99.99
2019-02-05T11:54:27.706Z,99.99
2019-02-05T11:55:35.649Z,99.99
2019-02-05T11:56:44.106Z,99.99
2019-02-05T11:57:51.749Z,99.99
2019-02-05T11:59:00.159Z,99.99
2019-02-05T12:00:08.001Z,99.99
2019-02-05T12:01:16.273Z,99.99
2019-02-05T12:02:24.246Z,99.99
2019-02-05T12:03:32.414Z,99.99
2019-02-05T12:04:40.119Z,99.99
2019-02-05T12:05:48.162Z,99.99
2019-02-05T12:06:56.228Z,99.99
2019-02-05T12:08:04.303Z,99.99
2019-02-05T12:09:12.465Z,99.99
2019-02-05T12:10:20.841Z,99.99
2019-02-05T12:11:28.450Z,99.99
2019-02-05T12:12:36.510Z,99.99
2019-02-05T12:13:44.609Z,99.99
2019-02-05T12:14:53.102Z,99.99
2019-02-05T12:16:00.948Z,99.99
2019-02-05T12:17:08.741Z,99.99
2019-02-05T12:18:16.965Z,99.99
2019-02-05T12:19:24.848Z,99.99
2019-02-05T12:20:33.009Z,99.99
2019-02-05T12:21:41.314Z,99.99
2019-02-05T12:22:49.272Z,99.99
2019-02-05T12:23:57.158Z,99.99
2019-02-05T12:25:05.124Z,99.99
2019-02-05T12:26:13.197Z,99.99
2019-02-05T12:27:21.243Z,99.99
2019-02-05T12:28:29.371Z,99.99
2019-02-05T12:29:37.719Z,99.99
2019-02-05T12:30:45.671Z,99.99
2019-02-05T12:31:53.806Z,99.99
2019-02-05T12:33:01.954Z,99.99
2019-02-05T12:34:09.621Z,99.99
2019-02-05T12:35:17.633Z,99.99
2019-02-05T12:36:25.700Z,99.99
2019-02-05T12:37:33.770Z,99.99
2019-02-05T12:38:41.894Z,99.99
2019-02-05T12:39:50.150Z,99.99
2019-02-05T12:40:58.074Z,99.99
2019-02-05T12:42:06.415Z,99.99
2019-02-05T12:43:14.052Z,99.99
2019-02-05T12:44:22.099Z,99.99
2019-02-05T12:45:30.276Z,99.99
2019-02-05T12:46:38.230Z,99.99
2019-02-05T12:47:46.302Z,99.99
2019-02-05T12:48:54.323Z,99.99
2019-02-05T12:50:02.383Z,99.99
2019-02-05T12:51:10.467Z,99.99
2019-02-05T12:52:18.529Z,99.99
2019-02-05T12:53:26.567Z,99.99
2019-02-05T12:54:35.117Z,99.99
2019-02-05T12:55:42.728Z,99.99
2019-02-05T12:56:50.750Z,99.99
2019-02-05T12:57:58.800Z,99.99
2019-02-05T12:59:07.131Z,99.99
2019-02-05T13:00:15.345Z,99.99
2019-02-05T13:01:23.005Z,99.99
2019-02-05T13:02:31.039Z,99.99
2019-02-05T13:03:39.584Z,99.99
2019-02-05T13:04:47.173Z,99.99
2019-02-05T13:05:55.230Z,99.99
2019-02-05T13:07:03.361Z,99.99
2019-02-05T13:08:11.409Z,99.99
2019-02-05T13:09:19.392Z,99.99
2019-02-05T13:10:27.530Z,99.99
2019-02-05T13:11:35.515Z,99.99
2019-02-05T13:12:43.560Z,99.99
2019-02-05T13:13:51.595Z,99.99
2019-02-05T13:14:59.675Z,99.99
2019-02-05T13:16:07.731Z,99.99
2019-02-05T13:17:15.783Z,99.99
2019-02-05T13:18:23.922Z,99.99
2019-02-05T13:19:32.026Z,99.99
2019-02-05T13:20:40.009Z,99.99
2019-02-05T13:21:48.010Z,99.99
2019-02-05T13:22:56.076Z,99.99
2019-02-05T13:24:04.121Z,99.99
2019-02-05T13:25:12.434Z,99.99
2019-02-05T13:26:20.241Z,99.99
2019-02-05T13:27:28.307Z,99.99
2019-02-05T13:28:36.368Z,99.99
2019-02-05T13:29:44.425Z,99.99
2019-02-05T13:30:52.460Z,99.99
2019-02-05T13:32:00.512Z,99.99
2019-02-05T13:33:08.576Z,99.99
2019-02-05T13:34:16.642Z,99.99
2019-02-05T13:35:24.707Z,99.99
2019-02-05T13:36:32.751Z,99.99
2019-02-05T13:37:40.828Z,99.99
2019-02-05T13:38:48.861Z,99.99
2019-02-05T13:39:56.937Z,99.99
2019-02-05T13:41:04.988Z,99.99
2019-02-05T13:42:13.047Z,99.99
2019-02-05T13:43:21.104Z,99.99
2019-02-05T13:44:29.153Z,99.99
2019-02-05T13:45:37.225Z,99.99
2019-02-05T13:46:45.281Z,99.99
2019-02-05T13:47:53.335Z,99.99
2019-02-05T13:49:01.374Z,99.99
2019-02-05T13:50:09.444Z,99.99
2019-02-05T13:51:17.506Z,99.99
2019-02-05T13:52:25.549Z,99.99
2019-02-05T13:53:33.626Z,99.99
2019-02-05T13:54:41.647Z,99.99
2019-02-05T13:55:49.732Z,99.99
2019-02-05T13:56:57.798Z,99.99
2019-02-05T13:58:05.844Z,99.99
2019-02-05T13:59:13.909Z,99.99
2019-02-05T14:00:21.945Z,99.99
2019-02-05T14:01:30.020Z,99.99
2019-02-05T14:02:38.086Z,99.99
2019-02-05T14:03:46.469Z,99.99
2019-02-05T14:04:54.198Z,99.99
2019-02-05T14:06:02.235Z,99.99
2019-02-05T14:07:10.314Z,99.99
2019-02-05T14:08:18.360Z,99.99
2019-02-05T14:09:26.464Z,99.99
2019-02-05T14:10:34.510Z,99.99
2019-02-05T14:11:42.521Z,99.99
2019-02-05T14:12:50.608Z,99.99
2019-02-05T14:13:58.660Z,99.99
2019-02-05T14:15:06.714Z,99.99
2019-02-05T14:16:14.764Z,99.99
2019-02-05T14:17:22.820Z,99.99
2019-02-05T14:18:30.892Z,99.99
2019-02-05T14:19:38.943Z,99.99
2019-02-05T14:20:46.996Z,99.99
2019-02-05T14:21:55.055Z,99.99
2019-02-05T14:23:03.106Z,99.99
2019-02-05T14:24:11.172Z,99.99
2019-02-05T14:25:19.215Z,99.99
2019-02-05T14:26:27.276Z,99.99
2019-02-05T14:27:35.335Z,99.99
2019-02-05T14:28:43.400Z,99.99
2019-02-05T14:29:51.437Z,99.99
2019-02-05T14:30:59.511Z,99.99
2019-02-05T14:32:07.566Z,99.99
2019-02-05T14:33:15.615Z,99.99
2019-02-05T14:34:23.684Z,99.99
2019-02-05T14:35:31.723Z,99.99
2019-02-05T14:36:39.803Z,99.99
2019-02-05T14:37:47.843Z,99.99
2019-02-05T14:38:55.911Z,99.99
2019-02-05T14:40:03.958Z,99.99
2019-02-05T14:41:12.017Z,99.99
2019-02-05T14:42:20.200Z,99.99
2019-02-05T14:43:28.161Z,99.99
2019-02-05T14:44:36.189Z,99.99
2019-02-05T14:45:44.258Z,99.99
2019-02-05T14:46:52.294Z,99.99
2019-02-05T14:48:00.374Z,99.99
2019-02-05T14:49:08.423Z,99.99
2019-02-05T14:50:16.492Z,99.99
2019-02-05T14:51:24.567Z,99.99
2019-02-05T14:52:32.590Z,99.99
2019-02-05T14:53:40.647Z,99.99
2019-02-05T14:54:48.715Z,99.99
2019-02-05T14:55:56.757Z,99.99
2019-02-05T14:57:06.334Z,99.99
2019-02-05T14:58:12.886Z,99.99
2019-02-05T14:59:20.941Z,99.99
2019-02-05T15:00:28.998Z,99.99
2019-02-05T15:01:42.916Z,99.99
2019-02-05T15:02:45.117Z,99.99
2019-02-05T15:03:53.162Z,99.99
2019-02-05T15:05:01.221Z,99.99
2019-02-05T15:06:10.078Z,99.99
2019-02-05T15:07:17.331Z,99.99
2019-02-05T15:08:25.397Z,99.99
2019-02-05T15:09:33.454Z,99.99
2019-02-05T15:10:41.495Z,99.99